Time;durP1;ratioP1;P1;durP2;ratioP2;P2;SDS_P1;SDS_P2;PMS_P1;PMS_P2;Temp;Humidity;BMP_temperature;BMP_pressure;BME280_temperature;BME280_humidity;BME280_pressure;Samples;Min_cycle;Max_cycle;Signal;HPM_P1;HPM_P2
2022/03/14 00:01:43;;;;;;;23.33;14.43;;;;;;;29.78;64.89;100837.47;5079335;28;70230;-38
2022/03/14 00:04:14;;;;;;;20.95;12.52;;;;;;;29.81;64.88;100844.28;5060512;28;66008;-38
2022/03/14 00:06:48;;;;;;;23.13;13.32;;;;;;;29.81;65.35;100847.00;5058267;28;69774;-39
2022/03/14 00:09:19;;;;;;;20.08;11.40;;;;;;;29.83;65.93;100853.84;5068193;28;65210;-39
2022/03/14 00:11:55;;;;;;;23.42;13.40;;;;;;;29.76;65.97;100842.25;5079613;28;69598;-39
2022/03/14 00:14:25;;;;;;;26.85;13.77;;;;;;;29.92;65.97;100859.03;5080539;27;66203;-40
2022/03/14 00:16:57;;;;;;;20.38;13.02;;;;;;;29.91;65.97;100860.06;5069444;27;69153;-41
2022/03/14 00:19:31;;;;;;;22.10;12.50;;;;;;;29.95;65.80;100861.28;5085319;27;66180;-41
2022/03/14 00:22:03;;;;;;;21.52;12.02;;;;;;;30.11;62.95;100868.09;5065278;28;69316;-40
2022/03/14 00:24:35;;;;;;;15.15;10.73;;;;;;;30.20;61.22;100867.66;5072491;28;65259;-39
2022/03/14 00:27:07;;;;;;;17.60;10.00;;;;;;;30.32;60.92;100872.41;5052326;28;68910;-40
2022/03/14 00:29:37;;;;;;;13.85;10.40;;;;;;;30.41;60.77;100876.50;5042642;28;66691;-41
2022/03/14 00:32:08;;;;;;;13.73;10.27;;;;;;;30.39;60.13;100871.28;5067345;28;70170;-40
2022/03/14 00:34:40;;;;;;;20.40;10.25;;;;;;;30.54;59.98;100876.44;5050658;28;65441;-40
2022/03/14 00:37:11;;;;;;;15.73;10.13;;;;;;;30.56;59.73;100878.91;5080774;28;68990;-40
2022/03/14 00:39:42;;;;;;;11.07;10.07;;;;;;;30.63;59.90;100885.94;5072412;28;65783;-39
2022/03/14 00:42:13;;;;;;;13.18;9.77;;;;;;;30.75;59.43;100893.34;5072432;28;71292;-40
2022/03/14 00:44:44;;;;;;;16.00;10.57;;;;;;;30.70;58.95;100885.88;5058375;28;64957;-40
2022/03/14 00:47:16;;;;;;;15.10;10.25;;;;;;;30.81;59.31;100893.34;5074450;28;69729;-40
2022/03/14 00:49:47;;;;;;;12.32;10.05;;;;;;;30.75;59.21;100885.25;5065897;28;66471;-39
2022/03/14 00:52:18;;;;;;;13.52;9.52;;;;;;;30.91;58.81;100904.50;5079627;27;69319;-40
2022/03/14 00:54:51;;;;;;;19.48;9.70;;;;;;;30.96;58.41;100912.00;5078766;28;66412;-41
2022/03/14 00:57:22;;;;;;;10.90;9.82;;;;;;;30.92;58.40;100899.91;5078994;27;70118;-40
2022/03/14 00:59:52;;;;;;;12.88;9.52;;;;;;;30.96;58.10;100914.69;5059265;28;65884;-39
2022/03/14 01:02:23;;;;;;;14.48;9.45;;;;;;;31.01;57.78;100911.31;5071581;28;69933;-39
2022/03/14 01:04:54;;;;;;;11.95;9.20;;;;;;;31.06;58.29;100928.56;5065905;27;65202;-39
2022/03/14 01:07:25;;;;;;;14.85;9.38;;;;;;;31.07;57.56;100919.41;5079752;28;69791;-40
2022/03/14 01:09:56;;;;;;;10.20;8.95;;;;;;;31.12;57.29;100927.72;5079567;28;66582;-39
2022/03/14 01:12:27;;;;;;;11.35;9.80;;;;;;;31.11;57.60;100926.03;5079831;28;69921;-39
2022/03/14 01:14:57;;;;;;;13.70;8.98;;;;;;;31.20;57.16;100939.31;5066708;27;66276;-40
2022/03/14 01:17:28;;;;;;;10.30;8.77;;;;;;;31.14;57.28;100930.19;5082049;27;71133;-40
2022/03/14 01:19:59;;;;;;;8.85;8.00;;;;;;;31.23;56.95;100944.28;5078103;27;66145;-41
2022/03/14 01:22:30;;;;;;;9.15;8.20;;;;;;;31.03;57.04;100901.91;5066989;28;69986;-40
2022/03/14 01:25:05;;;;;;;9.20;8.00;;;;;;;31.26;56.82;100933.00;5065410;27;66904;-40
2022/03/14 01:27:36;;;;;;;9.35;8.48;;;;;;;31.32;56.53;100942.97;5062843;28;69934;-39
2022/03/14 01:30:07;;;;;;;9.50;8.55;;;;;;;31.35;56.81;100942.53;5065978;28;66597;-39
2022/03/14 01:32:39;;;;;;;8.73;7.68;;;;;;;31.36;56.35;100944.19;5062270;28;69205;-40
2022/03/14 01:35:09;;;;;;;12.65;9.07;;;;;;;31.39;56.13;100943.75;5065904;27;65600;-39
2022/03/14 01:37:40;;;;;;;13.43;8.32;;;;;;;31.42;56.66;100948.72;5078206;27;70381;-39
2022/03/14 01:40:15;;;;;;;8.23;7.53;;;;;;;31.40;56.51;100950.84;5079350;28;66224;-40
2022/03/14 01:42:46;;;;;;;15.43;8.48;;;;;;;31.46;56.21;100952.66;5064264;28;70154;-39
2022/03/14 01:45:18;;;;;;;9.07;8.13;;;;;;;31.44;56.35;100951.22;5077592;27;64877;-40
2022/03/14 01:47:49;;;;;;;9.68;7.50;;;;;;;31.50;56.38;100956.56;5081052;27;70203;-40
2022/03/14 01:50:20;;;;;;;8.70;7.63;;;;;;;31.51;56.18;100963.69;5068422;27;65343;-40
2022/03/14 01:52:51;;;;;;;9.43;8.20;;;;;;;31.52;55.63;100959.09;5075252;28;70180;-40
2022/03/14 01:55:22;;;;;;;8.57;7.77;;;;;;;31.50;55.59;100956.56;5078939;27;65716;-39
2022/03/14 01:57:56;;;;;;;9.98;8.02;;;;;;;31.61;55.54;100976.72;5061809;27;43086;-39
2022/03/14 02:00:28;;;;;;;11.32;8.60;;;;;;;31.49;55.55;100946.78;5060011;28;66673;-40
2022/03/14 02:02:59;;;;;;;8.50;7.75;;;;;;;31.55;55.39;100951.31;5062015;28;70702;-39
2022/03/14 02:05:32;;;;;;;8.27;7.53;;;;;;;31.58;55.68;100959.00;5060429;28;65486;-39
2022/03/14 02:08:07;;;;;;;8.13;7.32;;;;;;;31.68;55.51;100963.94;5061488;27;69804;-39
2022/03/14 02:10:38;;;;;;;8.60;7.85;;;;;;;31.69;55.63;100959.34;5060215;28;65166;-40
2022/03/14 02:13:11;;;;;;;8.55;7.78;;;;;;;31.75;54.97;100961.13;5061196;28;70093;-39
2022/03/14 02:15:42;;;;;;;9.05;7.93;;;;;;;31.77;55.23;100967.19;5061514;28;66154;-38
2022/03/14 02:18:12;;;;;;;9.07;8.32;;;;;;;31.71;55.41;100947.22;5078376;27;69551;-38
2022/03/14 02:20:43;;;;;;;8.88;7.93;;;;;;;31.82;55.01;100964.63;5060353;28;66896;-39
2022/03/14 02:23:14;;;;;;;8.38;7.53;;;;;;;31.83;54.59;100961.69;5074692;28;70466;-39
2022/03/14 02:25:53;;;;;;;10.02;7.38;;;;;;;31.56;54.37;100911.47;5079138;28;65955;-40
2022/03/14 02:28:26;;;;;;;8.85;7.53;;;;;;;31.79;54.89;100937.97;5076872;28;69163;-39
2022/03/14 02:30:57;;;;;;;8.55;7.75;;;;;;;31.91;54.37;100952.44;5065193;28;65293;-40
2022/03/14 02:33:28;;;;;;;7.77;7.07;;;;;;;31.92;54.49;100948.66;5076399;28;69438;-41
2022/03/14 02:35:58;;;;;;;8.43;7.63;;;;;;;31.95;54.14;100948.22;5077278;28;65943;-40
2022/03/14 02:38:30;;;;;;;7.40;6.78;;;;;;;31.91;54.29;100936.16;5063718;28;69728;-39
2022/03/14 02:41:01;;;;;;;8.70;7.53;;;;;;;32.01;54.13;100941.91;5064487;28;65579;-40
2022/03/14 02:43:34;;;;;;;7.93;7.22;;;;;;;32.06;53.99;100946.63;5065925;27;70102;-39
2022/03/14 02:46:10;;;;;;;9.25;7.45;;;;;;;32.00;54.48;100925.84;5063789;28;65226;-39
2022/03/14 02:48:44;;;;;;;7.60;7.00;;;;;;;32.02;54.23;100929.16;5078258;27;70273;-40
2022/03/14 02:51:15;;;;;;;9.88;7.50;;;;;;;32.14;54.00;100934.66;5072663;27;66111;-40
2022/03/14 02:53:46;;;;;;;6.97;6.45;;;;;;;32.15;53.96;100930.88;5056665;28;69736;-40
2022/03/14 02:56:17;;;;;;;7.88;7.15;;;;;;;32.16;53.63;100933.38;5064181;28;66350;-39
2022/03/14 02:58:52;;;;;;;7.60;7.00;;;;;;;32.07;53.81;100915.75;5085093;27;69991;-41
2022/03/14 03:01:23;;;;;;;7.88;7.00;;;;;;;32.21;53.92;100928.09;5064967;28;65316;-40
2022/03/14 03:03:55;;;;;;;8.23;7.55;;;;;;;32.23;53.60;100925.13;5076689;28;70495;-41
2022/03/14 03:06:25;;;;;;;7.15;6.55;;;;;;;32.26;53.71;100927.38;5072891;28;65577;-41
2022/03/14 03:08:56;;;;;;;8.30;7.55;;;;;;;32.24;53.95;100913.22;5071352;28;69711;-40
2022/03/14 03:11:27;;;;;;;12.48;7.28;;;;;;;32.26;53.35;100908.38;5080413;27;66437;-40
2022/03/14 03:13:59;;;;;;;8.30;7.63;;;;;;;32.32;53.34;100926.50;5076108;28;69562;-40
2022/03/14 03:16:32;;;;;;;8.07;7.25;;;;;;;32.23;53.38;100909.69;5073073;28;65239;-39
2022/03/14 03:19:03;;;;;;;7.28;6.78;;;;;;;32.35;53.47;100926.03;5076828;28;69926;-40
2022/03/14 03:21:38;;;;;;;7.60;7.00;;;;;;;32.38;53.77;100927.47;5081190;27;65435;-39
2022/03/14 03:24:09;;;;;;;7.90;6.97;;;;;;;32.39;53.67;100927.22;5059612;28;69921;-39
2022/03/14 03:26:41;;;;;;;7.55;6.85;;;;;;;32.39;53.57;100921.78;5064913;28;66207;-40
2022/03/14 03:29:12;;;;;;;8.55;7.22;;;;;;;32.41;53.23;100918.84;5068091;28;69203;-40
2022/03/14 03:31:43;;;;;;;7.47;6.88;;;;;;;32.44;53.30;100908.34;5082321;27;66191;-41
2022/03/14 03:34:13;;;;;;;7.07;6.47;;;;;;;32.40;52.97;100903.59;5080691;28;70128;-40
2022/03/14 03:36:44;;;;;;;7.10;6.43;;;;;;;32.37;53.23;100901.34;5068803;28;66846;-40
2022/03/14 03:39:15;;;;;;;10.65;6.93;;;;;;;32.47;52.98;100913.34;5061758;28;70239;-40
2022/03/14 03:41:47;;;;;;;7.10;6.50;;;;;;;32.52;52.80;100903.69;5073957;28;66229;-41
2022/03/14 03:44:18;;;;;;;7.95;6.70;;;;;;;32.54;52.88;100909.72;5081643;28;69912;-40
2022/03/14 03:46:49;;;;;;;6.88;6.28;;;;;;;32.54;52.80;100907.00;5069811;27;66030;-40
2022/03/14 03:49:20;;;;;;;7.65;7.05;;;;;;;32.45;52.77;100885.56;5061115;28;70264;-40
2022/03/14 03:51:51;;;;;;;7.85;7.13;;;;;;;32.60;52.61;100914.25;5081088;27;67861;-41
2022/03/14 03:54:22;;;;;;;7.85;7.00;;;;;;;32.62;52.58;100903.94;5062039;28;69437;-40
2022/03/14 03:56:54;;;;;;;8.85;6.45;;;;;;;32.59;52.22;100888.13;5060672;28;66235;-40
2022/03/14 03:59:25;;;;;;;6.82;6.32;;;;;;;32.59;52.58;100877.25;5066741;28;70565;-46
2022/03/14 04:01:56;;;;;;;7.38;6.57;;;;;;;32.67;52.43;100885.06;5071191;28;66524;-40
2022/03/14 04:04:26;;;;;;;7.65;6.95;;;;;;;32.71;52.25;100880.84;5073502;28;68954;-39
2022/03/14 04:06:59;;;;;;;7.20;6.60;;;;;;;32.71;52.43;100880.84;5072005;28;65317;-41
2022/03/14 04:09:29;;;;;;;9.68;7.40;;;;;;;32.72;52.33;100863.47;5079349;28;70479;-40
2022/03/14 04:12:00;;;;;;;7.05;6.38;;;;;;;32.78;52.16;100870.69;5049492;28;65609;-40
2022/03/14 04:14:31;;;;;;;7.05;6.35;;;;;;;32.80;52.20;100865.84;5077111;28;70009;-40
2022/03/14 04:17:04;;;;;;;6.90;6.13;;;;;;;32.83;52.27;100873.53;5082645;27;66598;-40
2022/03/14 04:19:41;;;;;;;6.60;6.10;;;;;;;32.86;52.24;100862.19;5067053;27;69390;-40
2022/03/14 04:22:14;;;;;;;7.68;6.13;;;;;;;32.76;51.88;100834.78;5061847;28;65786;-40
2022/03/14 04:24:45;;;;;;;6.97;6.18;;;;;;;32.90;52.18;100854.41;5059975;28;70134;-39
2022/03/14 04:27:17;;;;;;;9.25;6.93;;;;;;;32.91;51.97;100854.19;5064897;28;65866;-40
2022/03/14 04:29:48;;;;;;;7.00;6.38;;;;;;;32.83;51.96;100830.06;5080249;27;70166;-39
2022/03/14 04:32:18;;;;;;;6.75;6.20;;;;;;;32.92;52.09;100847.66;5065202;28;66395;-41
2022/03/14 04:34:50;;;;;;;7.50;6.82;;;;;;;32.97;51.79;100835.28;5069362;28;70311;-40
2022/03/14 04:37:20;;;;;;;6.50;6.00;;;;;;;32.90;51.96;100825.38;5073880;28;65901;-39
2022/03/14 04:39:51;;;;;;;7.75;6.90;;;;;;;33.02;51.80;100838.16;5071534;28;70223;-39
2022/03/14 04:42:23;;;;;;;6.88;6.28;;;;;;;33.01;51.68;100831.06;5077931;27;65544;-40
2022/03/14 04:44:54;;;;;;;7.10;6.22;;;;;;;32.99;51.84;100805.97;5069647;28;70201;-40
2022/03/14 04:47:26;;;;;;;11.25;6.75;;;;;;;33.05;52.15;100821.38;5063696;28;65747;-40
2022/03/14 04:49:56;;;;;;;7.40;6.63;;;;;;;33.01;51.69;100806.59;5070804;27;69944;-40
2022/03/14 04:52:28;;;;;;;7.75;6.97;;;;;;;33.06;52.26;100809.44;5073210;28;65152;-40
2022/03/14 04:54:59;;;;;;;7.40;6.88;;;;;;;33.00;52.05;100794.91;5052572;28;69915;-40
2022/03/14 04:57:30;;;;;;;6.95;6.35;;;;;;;33.04;51.90;100781.66;5066844;27;65697;-40
2022/03/14 05:00:01;;;;;;;8.30;6.65;;;;;;;33.05;51.94;100778.72;5078397;28;69096;-41
2022/03/14 05:02:31;;;;;;;7.53;6.93;;;;;;;33.11;51.86;100769.59;5066904;27;65929;-41
2022/03/14 05:05:03;;;;;;;7.90;6.63;;;;;;;33.09;51.79;100773.63;5072500;27;70000;-42
2022/03/14 05:07:33;;;;;;;8.70;6.55;;;;;;;33.14;51.81;100754.72;5058667;28;66448;-40
2022/03/14 05:10:06;;;;;;;7.13;6.45;;;;;;;33.15;51.86;100756.34;5067920;28;70077;-41
2022/03/14 05:12:37;;;;;;;6.97;6.40;;;;;;;33.18;51.85;100755.06;5080397;28;65419;-42
2022/03/14 05:15:08;;;;;;;6.67;6.27;;;;;;;33.16;52.07;100747.16;5071933;27;70875;-39
2022/03/14 05:17:39;;;;;;;6.40;5.95;;;;;;;33.15;52.14;100735.47;5074818;28;66166;-40
2022/03/14 05:20:10;;;;;;;9.50;7.00;;;;;;;33.18;52.05;100728.69;5066350;28;70090;-40
2022/03/14 05:22:45;;;;;;;7.60;6.32;;;;;;;33.20;51.73;100731.19;5076657;27;64841;-40
2022/03/14 05:25:25;;;;;;;6.30;5.80;;;;;;;33.16;51.75;100711.81;5076858;28;69839;-42
2022/03/14 05:27:55;;;;;;;9.27;6.53;;;;;;;33.22;51.69;100713.56;5070845;28;64840;-41
2022/03/14 05:30:26;;;;;;;7.18;6.57;;;;;;;33.15;51.98;100685.69;5061204;28;69730;-40
2022/03/14 05:32:57;;;;;;;8.57;6.25;;;;;;;33.23;51.70;100698.91;5069488;28;66108;-40
2022/03/14 05:35:28;;;;;;;6.47;6.07;;;;;;;33.26;51.77;100698.41;5064616;28;71054;-39
2022/03/14 05:37:59;;;;;;;8.73;6.70;;;;;;;33.22;51.80;100686.41;5069111;28;65930;-40
2022/03/14 05:40:30;;;;;;;;;;;;;;;32.95;52.29;100686.06;5075772;28;70320;-40
2022/03/14 05:43:07;;;;;;;6.68;5.60;;;;;;;33.28;51.59;100688.13;5077704;28;65282;-40
2022/03/14 05:45:38;;;;;;;7.13;6.15;;;;;;;33.33;51.62;100682.81;5079491;27;69971;-39
2022/03/14 05:48:08;;;;;;;6.70;5.65;;;;;;;33.35;51.64;100672.53;5078732;28;65809;-40
2022/03/14 05:50:40;;;;;;;6.53;5.83;;;;;;;33.35;51.75;100669.81;5078614;28;68565;-39
2022/03/14 05:53:12;;;;;;;6.55;6.15;;;;;;;33.35;51.54;100661.66;5079302;28;66044;-41
2022/03/14 05:55:42;;;;;;;6.65;6.15;;;;;;;33.37;51.55;100654.06;5063145;28;69512;-39
2022/03/14 05:58:13;;;;;;;6.20;5.75;;;;;;;33.43;51.54;100657.69;5070693;28;65297;-40
2022/03/14 06:00:44;;;;;;;6.25;5.85;;;;;;;33.40;51.61;100641.06;5059155;28;70362;-40
2022/03/14 06:03:15;;;;;;;6.60;6.13;;;;;;;33.46;51.49;100648.22;5065892;28;66475;-41
2022/03/14 06:05:49;;;;;;;6.25;5.65;;;;;;;33.47;51.58;100633.59;5077907;28;70715;-40
2022/03/14 06:08:19;;;;;;;6.47;5.97;;;;;;;33.46;51.38;100626.47;5079171;27;66716;-40
2022/03/14 06:10:50;;;;;;;7.25;6.47;;;;;;;33.50;51.28;100617.59;5077661;28;70529;-40
2022/03/14 06:13:21;;;;;;;5.47;5.18;;;;;;;33.44;51.45;100601.44;5061770;28;66691;-40
2022/03/14 06:15:52;;;;;;;5.70;5.30;;;;;;;33.53;51.39;100606.25;5066487;27;70524;-41
2022/03/14 06:18:22;;;;;;;6.07;5.60;;;;;;;33.57;51.29;100595.69;5078334;27;66549;-39
2022/03/14 06:20:53;;;;;;;6.40;5.80;;;;;;;33.62;51.30;100589.53;5059188;28;70525;-40
2022/03/14 06:23:24;;;;;;;6.10;5.53;;;;;;;33.67;51.16;100593.16;5059323;28;65998;-40
2022/03/14 06:25:55;;;;;;;7.32;6.28;;;;;;;33.67;51.26;100578.75;5058566;28;70129;-40
2022/03/14 06:28:26;;;;;;;6.47;5.97;;;;;;;33.71;50.96;100580.75;5073441;28;65476;-39
2022/03/14 06:30:57;;;;;;;6.18;5.68;;;;;;;33.74;51.37;100568.50;5066277;28;70322;-40
2022/03/14 06:33:28;;;;;;;5.70;5.17;;;;;;;33.76;51.05;100569.09;5079810;27;67405;-42
2022/03/14 06:35:58;;;;;;;6.30;5.60;;;;;;;33.79;50.79;100563.16;5079905;28;70590;-40
2022/03/14 06:38:29;;;;;;;6.53;6.03;;;;;;;33.84;50.93;100563.25;5093636;27;67611;-40
2022/03/14 06:41:00;;;;;;;6.45;6.00;;;;;;;33.84;50.84;100554.25;5057687;28;68657;-40
2022/03/14 06:43:32;;;;;;;6.90;6.38;;;;;;;33.87;50.74;100540.16;5072546;28;67895;-40
2022/03/14 06:46:04;;;;;;;;;;;;;;;33.60;51.53;100551.72;5064933;28;70435;-39
2022/03/14 06:48:40;;;;;;;6.40;5.82;;;;;;;33.85;51.01;100531.41;5079900;28;66801;-39
2022/03/14 06:51:11;;;;;;;8.07;6.38;;;;;;;33.88;50.91;100520.03;5064733;28;69142;-39
2022/03/14 06:54:11;;;;;;;6.65;6.15;;;;;;;33.98;50.86;100531.06;5079076;27;66629;-40
2022/03/14 06:56:42;;;;;;;6.15;5.75;;;;;;;33.93;50.96;100517.38;5071073;28;70367;-40
2022/03/14 06:59:13;;;;;;;6.72;6.15;;;;;;;33.93;50.59;100514.66;5064142;28;65665;-40
2022/03/14 07:01:44;;;;;;;6.30;5.80;;;;;;;33.91;51.10;100505.94;5073374;28;71693;-40
2022/03/14 07:04:15;;;;;;;9.23;6.17;;;;;;;34.00;50.87;100513.41;5078025;28;65998;-39
2022/03/14 07:06:47;;;;;;;6.05;5.55;;;;;;;33.99;51.02;100506.34;5073538;28;69811;-39
2022/03/14 07:09:18;;;;;;;6.55;6.15;;;;;;;34.03;50.90;100512.09;5063547;28;66669;-40
2022/03/14 07:11:54;;;;;;;7.18;6.68;;;;;;;33.93;50.73;100492.91;5074327;27;70397;-39
2022/03/14 07:14:25;;;;;;;6.22;5.65;;;;;;;34.02;50.66;100497.66;5077585;28;66156;-41
2022/03/14 07:16:56;;;;;;;8.45;6.10;;;;;;;34.11;51.19;100495.38;5076520;27;70305;-41
2022/03/14 07:19:27;;;;;;;6.50;5.90;;;;;;;34.16;50.76;100492.72;5086876;27;65294;-41
2022/03/14 07:21:58;;;;;;;7.30;6.53;;;;;;;34.19;50.55;100481.31;5078506;28;69560;-40
2022/03/14 07:24:30;;;;;;;6.60;6.00;;;;;;;34.13;50.56;100463.28;5061551;28;66385;-40
2022/03/14 07:27:01;;;;;;;6.05;5.57;;;;;;;34.28;50.46;100475.44;5076742;28;70368;-40
2022/03/14 07:29:31;;;;;;;7.35;6.45;;;;;;;34.30;50.59;100474.13;5072507;28;65503;-40
2022/03/14 07:32:02;;;;;;;6.18;5.60;;;;;;;34.32;50.65;100476.56;5066563;27;69654;-40
2022/03/14 07:34:33;;;;;;;6.10;5.70;;;;;;;34.35;50.12;100476.06;5072323;27;65566;-41
2022/03/14 07:37:05;;;;;;;6.20;5.72;;;;;;;34.36;50.37;100461.38;5076364;28;70157;-40
2022/03/14 07:39:36;;;;;;;6.20;5.70;;;;;;;34.35;49.93;100465.16;5069398;28;66002;-40
2022/03/14 07:42:08;;;;;;;8.10;6.20;;;;;;;34.38;50.51;100456.50;5066033;28;69933;-40
2022/03/14 07:44:39;;;;;;;6.85;6.32;;;;;;;34.42;50.72;100444.03;5081514;28;65856;-41
2022/03/14 07:47:10;;;;;;;6.37;5.87;;;;;;;34.53;52.37;100451.22;5081010;28;69700;-41
2022/03/14 07:49:41;;;;;;;7.50;6.70;;;;;;;34.59;52.25;100439.34;5050068;28;65997;-40
2022/03/14 07:52:12;;;;;;;12.55;7.13;;;;;;;34.62;52.61;100436.09;5095708;27;69110;-40
2022/03/14 07:54:43;;;;;;;9.13;6.97;;;;;;;34.72;52.11;100448.19;5078264;27;66256;-40
2022/03/14 07:57:13;;;;;;;7.32;6.45;;;;;;;34.66;51.70;100429.06;5072779;28;70411;-41
2022/03/14 07:59:46;;;;;;;7.32;6.68;;;;;;;34.81;51.66;100444.72;5066351;27;66551;-40
2022/03/14 08:02:17;;;;;;;13.35;7.13;;;;;;;34.86;51.58;100449.44;5080525;28;70599;-40
2022/03/14 08:04:49;;;;;;;7.75;6.95;;;;;;;34.86;51.63;100442.06;5068426;28;66134;-39
2022/03/14 08:07:47;;;;;;;6.85;6.20;;;;;;;34.88;51.36;100444.50;5071028;27;69961;-40
2022/03/14 08:11:03;;;;;;;7.25;6.57;;;;;;;34.61;51.62;100388.16;5077210;28;65944;-39
2022/03/14 08:13:44;;;;;;;6.70;6.13;;;;;;;34.88;51.66;100428.16;5045324;28;69659;-39
2022/03/14 08:16:15;;;;;;;7.22;6.38;;;;;;;34.91;51.46;100435.84;5080067;28;65747;-39
2022/03/14 08:18:49;;;;;;;10.70;6.68;;;;;;;34.94;51.11;100429.88;5077892;27;70503;-41
2022/03/14 08:21:19;;;;;;;7.60;6.70;;;;;;;34.89;51.15;100417.03;5069889;28;65651;-41
2022/03/14 08:23:50;;;;;;;7.07;6.53;;;;;;;34.98;51.19;100441.06;5071800;28;70100;-39
2022/03/14 08:26:22;;;;;;;6.57;6.00;;;;;;;34.97;51.45;100432.09;5073060;28;66542;-39
2022/03/14 08:28:52;;;;;;;6.47;5.93;;;;;;;34.93;50.96;100425.50;5080029;28;69829;-40
2022/03/14 08:31:23;;;;;;;6.80;5.93;;;;;;;34.94;51.10;100424.44;5080889;27;66808;-39
2022/03/14 08:34:01;;;;;;;6.67;6.17;;;;;;;34.96;50.70;100433.16;5079976;28;70567;-39
2022/03/14 08:36:40;;;;;;;6.43;6.03;;;;;;;34.96;51.13;100424.16;5079643;27;65811;-39
2022/03/14 08:39:15;;;;;;;6.25;5.82;;;;;;;34.97;51.00;100440.25;5079595;28;69277;-41
2022/03/14 08:41:46;;;;;;;5.88;5.47;;;;;;;34.99;50.82;100457.16;5077901;27;66896;-40
2022/03/14 08:44:18;;;;;;;6.22;5.72;;;;;;;34.97;50.98;100445.72;5066367;27;68932;-39
2022/03/14 08:46:49;;;;;;;8.65;5.78;;;;;;;34.99;50.76;100459.88;5079849;27;66040;-40
2022/03/14 08:49:21;;;;;;;5.90;5.40;;;;;;;34.92;51.15;100442.94;5075850;27;70539;-40
2022/03/14 08:51:51;;;;;;;5.97;5.47;;;;;;;35.01;50.97;100463.19;5059975;28;66609;-39
2022/03/14 08:54:22;;;;;;;6.32;5.82;;;;;;;35.00;50.62;100467.00;5074375;28;69358;-40
2022/03/14 08:56:54;;;;;;;5.88;5.38;;;;;;;35.00;50.65;100482.53;5061306;28;66222;-40
2022/03/14 08:59:28;;;;;;;5.25;4.93;;;;;;;35.02;51.03;100497.53;5075545;28;70407;-40
2022/03/14 09:01:59;;;;;;;6.07;5.55;;;;;;;35.00;50.47;100513.34;5072094;28;66840;-39
2022/03/14 09:04:30;;;;;;;5.43;4.93;;;;;;;34.93;51.19;100524.41;5066917;27;69425;-39
2022/03/14 09:07:02;;;;;;;5.07;4.68;;;;;;;34.95;51.08;100539.72;5042270;28;65627;-40
2022/03/14 09:09:34;;;;;;;6.07;5.28;;;;;;;34.87;51.00;100538.25;5064140;28;69820;-40
2022/03/14 09:12:05;;;;;;;5.50;5.10;;;;;;;34.92;50.95;100546.50;5071248;27;66279;-39
2022/03/14 09:14:36;;;;;;;7.75;4.90;;;;;;;34.93;50.50;100543.50;5073011;28;69787;-40
2022/03/14 09:17:07;;;;;;;6.25;4.63;;;;;;;34.93;50.64;100550.84;5072099;27;66342;-40
2022/03/14 09:19:38;;;;;;;5.97;5.47;;;;;;;34.89;50.84;100541.56;5082151;27;70668;-40
2022/03/14 09:22:12;;;;;;;5.72;5.20;;;;;;;34.92;50.78;100535.59;5063218;28;65433;-39
2022/03/14 09:24:43;;;;;;;6.50;5.95;;;;;;;34.85;50.97;100543.97;5060416;28;70244;-39
2022/03/14 09:27:14;;;;;;;6.47;5.80;;;;;;;34.90;51.19;100540.47;5073329;28;67472;-40
2022/03/14 09:29:45;;;;;;;6.00;5.40;;;;;;;34.86;51.44;100531.16;5072005;28;69284;-40
2022/03/14 09:32:16;;;;;;;12.40;6.40;;;;;;;34.82;51.74;100519.13;5066547;27;66944;-41
2022/03/14 09:34:47;;;;;;;6.93;6.28;;;;;;;34.81;51.99;100517.50;5080613;27;69605;-40
2022/03/14 09:37:18;;;;;;;6.78;6.07;;;;;;;34.76;52.06;100509.25;5076830;27;66006;-40
2022/03/14 09:39:49;;;;;;;6.97;6.47;;;;;;;34.73;52.15;100504.31;5071741;28;71383;-41
2022/03/14 09:42:23;;;;;;;7.53;6.85;;;;;;;34.73;52.31;100509.78;5080740;28;66516;-42
2022/03/14 09:44:58;;;;;;;8.20;6.88;;;;;;;34.73;51.93;100520.66;5080161;28;70328;-41
2022/03/14 09:47:29;;;;;;;9.07;6.95;;;;;;;34.70;52.39;100511.91;5080108;28;66504;-41
2022/03/14 09:50:02;;;;;;;12.32;7.30;;;;;;;34.35;52.28;100457.00;5079309;28;69038;-40
2022/03/14 09:52:37;;;;;;;8.05;7.13;;;;;;;34.55;52.58;100487.22;5074538;28;65539;-40
2022/03/14 09:55:11;;;;;;;7.68;7.07;;;;;;;34.58;52.69;100492.19;5053888;28;69985;-39
2022/03/14 09:57:42;;;;;;;7.18;6.57;;;;;;;34.59;52.57;100499.25;5070920;28;66498;-41
2022/03/14 10:00:13;;;;;;;7.30;6.80;;;;;;;34.58;52.31;100496.81;5075769;28;71057;-40
2022/03/14 10:02:46;;;;;;;8.52;7.30;;;;;;;34.52;52.69;100490.44;5065378;28;66342;-39
2022/03/14 10:05:19;;;;;;;7.72;7.05;;;;;;;34.56;52.53;100505.22;5067863;28;70234;-40
2022/03/14 10:07:50;;;;;;;7.22;6.60;;;;;;;34.53;52.37;100508.44;5078641;28;66161;-40
2022/03/14 10:10:23;;;;;;;12.60;6.95;;;;;;;34.50;52.43;100508.94;5077503;27;70513;-40
2022/03/14 10:12:57;;;;;;;7.28;6.57;;;;;;;34.42;52.39;100503.94;5078092;28;65650;-41
2022/03/14 10:15:29;;;;;;;7.40;6.80;;;;;;;34.46;52.40;100518.66;5067821;28;68755;-40
2022/03/14 10:18:02;;;;;;;7.47;6.78;;;;;;;34.41;52.74;100519.44;5077485;27;65484;-39
2022/03/14 10:20:33;;;;;;;12.88;10.25;;;;;;;34.13;55.17;100534.06;5060667;28;69258;-42
2022/03/14 10:23:04;;;;;;;18.95;12.88;;;;;;;33.96;56.12;100530.50;5066163;27;66232;-42
2022/03/14 10:25:43;;;;;;;16.98;13.52;;;;;;;33.63;56.90;100485.94;5069074;28;70025;-44
2022/03/14 10:28:14;;;;;;;18.77;13.40;;;;;;;33.71;57.24;100507.28;5070092;28;66044;-41
2022/03/14 10:30:49;;;;;;;22.83;15.03;;;;;;;33.57;57.95;100497.78;5068868;28;70009;-41
2022/03/14 10:33:25;;;;;;;24.83;16.30;;;;;;;33.55;57.99;100497.25;5071278;28;65681;-41
2022/03/14 10:35:56;;;;;;;25.17;15.00;;;;;;;33.49;57.84;100490.03;5066680;28;70090;-42
2022/03/14 10:38:29;;;;;;;30.05;16.02;;;;;;;33.43;57.45;100489.13;5071811;28;66270;-42
2022/03/14 10:41:16;;;;;;;19.77;15.57;;;;;;;32.78;57.98;100406.19;5071012;28;69959;-42
2022/03/14 10:44:08;;;;;;;22.27;15.68;;;;;;;32.94;58.28;100418.16;5067755;28;66341;-43
2022/03/14 10:46:40;;;;;;;22.10;15.07;;;;;;;33.23;59.00;100470.56;5064329;28;69645;-43
2022/03/14 10:49:11;;;;;;;27.43;16.73;;;;;;;33.18;58.95;100470.50;5046688;28;65300;-42
2022/03/14 10:51:55;;;;;;;18.92;14.48;;;;;;;33.01;58.94;100456.06;5051074;28;70055;-42
2022/03/14 10:54:26;;;;;;;22.55;12.50;;;;;;;33.17;58.62;100493.31;5066210;28;66617;-41
2022/03/14 10:57:17;;;;;;;11.15;10.23;;;;;;;32.84;58.96;100456.81;5068036;28;70180;-41
2022/03/14 10:59:50;;;;;;;10.38;8.43;;;;;;;33.05;58.61;100489.84;5068219;28;65825;-41
2022/03/14 11:02:24;;;;;;;8.88;7.45;;;;;;;32.50;58.86;100426.06;5044861;28;69858;-41
2022/03/14 11:05:00;;;;;;;7.47;6.82;;;;;;;32.96;58.40;100485.81;5053564;28;65158;-41
2022/03/14 11:07:32;;;;;;;7.15;6.50;;;;;;;32.94;57.65;100497.78;5071566;28;69698;-42
2022/03/14 11:10:06;;;;;;;6.53;5.97;;;;;;;32.88;57.91;100496.03;5066810;28;65765;-43
2022/03/14 11:12:38;;;;;;;10.10;6.80;;;;;;;32.82;58.46;100491.59;5045725;28;69076;-42
2022/03/14 11:15:09;;;;;;;7.33;6.63;;;;;;;32.84;58.82;100499.47;5055196;28;66315;-42
2022/03/14 11:17:40;;;;;;;9.60;7.68;;;;;;;32.81;58.90;100500.78;5061038;27;70173;-41
2022/03/14 11:20:33;;;;;;;10.60;7.60;;;;;;;32.75;59.02;100498.22;5063734;28;66195;-41
2022/03/14 11:23:04;;;;;;;10.30;8.60;;;;;;;32.64;58.97;100486.31;5066451;28;70066;-41
2022/03/14 11:25:38;;;;;;;9.20;8.38;;;;;;;32.57;58.69;100477.47;5072778;28;65701;-41
2022/03/14 11:28:10;;;;;;;14.57;8.23;;;;;;;32.43;59.01;100457.91;5056779;28;70037;-41
2022/03/14 11:30:52;;;;;;;12.43;8.75;;;;;;;32.64;59.03;100514.31;5069959;27;65778;-41
2022/03/14 11:33:23;;;;;;;;;;;;;;;32.31;60.30;100533.94;5056750;28;70322;-43
2022/03/14 11:36:06;;;;;;;18.88;8.32;;;;;;;32.47;59.85;100516.94;5038844;28;64852;-42
2022/03/14 11:38:44;;;;;;;9.90;8.85;;;;;;;32.60;59.89;100547.63;5058227;28;69883;-43
2022/03/14 11:41:16;;;;;;;11.73;7.90;;;;;;;32.60;60.22;100558.50;5045461;28;66223;-44
2022/03/14 11:43:48;;;;;;;11.13;8.90;;;;;;;32.55;60.21;100561.09;5076178;28;69719;-41
2022/03/14 11:46:37;;;;;;;8.93;8.10;;;;;;;32.54;60.20;100570.28;5066597;28;65443;-42